createdAt,value
2019-04-06T00:00:00.025Z,100.00
2019-04-06T00:02:00.155Z,100.00
2019-04-06T00:03:59.953Z,99.90
2019-04-06T00:06:00.055Z,100.00
2019-04-06T00:08:00.075Z,100.00
2019-04-06T00:10:00.087Z,100.00
2019-04-06T00:11:59.992Z,100.00
2019-04-06T00:14:00.210Z,100.00
2019-04-06T00:16:00.000Z,100.00
2019-04-06T00:18:00.347Z,100.00
2019-04-06T00:20:00.245Z,100.00
2019-04-06T00:21:59.816Z,100.00
2019-04-06T00:23:59.968Z,99.96
2019-04-06T00:25:59.903Z,100.00
2019-04-06T00:28:00.193Z,100.00
2019-04-06T00:29:59.728Z,100.00
2019-04-06T00:32:00.007Z,100.00
2019-04-06T00:33:59.926Z,100.00
2019-04-06T00:36:00.344Z,100.00
2019-04-06T00:38:00.146Z,100.00
2019-04-06T00:39:59.958Z,100.00
2019-04-06T00:42:00.041Z,100.00
2019-04-06T00:43:59.975Z,100.00
2019-04-06T00:45:59.991Z,100.00
2019-04-06T00:48:00.003Z,100.00
2019-04-06T00:49:59.965Z,100.00
2019-04-06T00:52:00.235Z,100.00
2019-04-06T00:54:00.031Z,100.00
2019-04-06T00:56:00.249Z,100.00
2019-04-06T00:57:59.894Z,100.00
2019-04-06T01:00:00.201Z,100.00
2019-04-06T01:01:59.980Z,100.00
2019-04-06T01:03:59.993Z,99.99
2019-04-06T01:06:00.113Z,100.00
2019-04-06T01:08:00.015Z,100.00
2019-04-06T01:10:00.131Z,100.00
2019-04-06T01:12:00.039Z,100.00
2019-04-06T01:13:59.949Z,100.00
2019-04-06T01:16:00.064Z,100.00
2019-04-06T01:17:59.810Z,100.00
2019-04-06T01:20:00.135Z,100.00
2019-04-06T01:22:00.195Z,100.00
2019-04-06T01:23:59.931Z,100.00
2019-04-06T01:26:06.993Z,100.00
2019-04-06T01:28:00.237Z,100.00
2019-04-06T01:30:00.036Z,100.00
2019-04-06T01:32:00.574Z,100.00
2019-04-06T01:34:00.140Z,100.00
2019-04-06T01:36:00.176Z,100.00
2019-04-06T01:38:00.091Z,100.00
2019-04-06T01:40:02.623Z,100.00
2019-04-06T01:42:00.011Z,100.00
2019-04-06T01:44:00.021Z,100.00
2019-04-06T01:46:00.134Z,100.00
2019-04-06T01:48:00.359Z,100.00
2019-04-06T01:50:00.157Z,100.00
2019-04-06T01:52:00.485Z,100.00
2019-04-06T01:54:00.489Z,100.00
2019-04-06T01:56:00.401Z,100.00
2019-04-06T01:58:00.172Z,100.00
2019-04-06T02:00:00.080Z,100.00
2019-04-06T02:01:59.942Z,100.00
2019-04-06T02:04:00.080Z,100.00
2019-04-06T02:06:00.106Z,100.00
2019-04-06T02:07:59.958Z,100.00
2019-04-06T02:10:00.121Z,100.00
2019-04-06T02:11:59.985Z,100.00
2019-04-06T02:14:00.051Z,100.00
2019-04-06T02:16:00.183Z,100.00
2019-04-06T02:18:00.033Z,100.00
2019-04-06T02:20:00.128Z,100.00
2019-04-06T02:22:00.200Z,100.00
2019-04-06T02:24:00.561Z,100.00
2019-04-06T02:25:59.933Z,100.00
2019-04-06T02:28:00.075Z,100.00
2019-04-06T02:30:00.090Z,100.00
2019-04-06T02:32:00.097Z,100.00
2019-04-06T02:33:59.894Z,100.00
2019-04-06T02:36:00.115Z,100.00
2019-04-06T02:38:00.199Z,100.00
2019-04-06T02:40:00.138Z,100.00
2019-04-06T02:42:00.157Z,100.00
2019-04-06T02:44:00.387Z,100.00
2019-04-06T02:46:00.181Z,100.00
2019-04-06T02:48:00.519Z,100.00
2019-04-06T02:50:00.093Z,100.00
2019-04-06T02:52:00.084Z,100.00
2019-04-06T02:54:00.125Z,100.00
2019-04-06T02:56:00.335Z,100.00
2019-04-06T02:58:00.090Z,100.00
2019-04-06T03:00:00.164Z,100.00
2019-04-06T03:02:00.172Z,100.00
2019-04-06T03:04:00.041Z,100.00
2019-04-06T03:06:00.141Z,100.00
2019-04-06T03:08:00.261Z,100.00
2019-04-06T03:09:59.976Z,100.00
2019-04-06T03:12:00.229Z,100.00
2019-04-06T03:14:00.237Z,100.00
2019-04-06T03:16:00.251Z,100.00
2019-04-06T03:18:00.008Z,100.00
2019-04-06T03:20:00.275Z,100.00
2019-04-06T03:22:00.187Z,100.00
2019-04-06T03:24:00.116Z,100.00
2019-04-06T03:26:00.144Z,100.00
2019-04-06T03:28:00.430Z,100.00
2019-04-06T03:30:00.130Z,100.00
2019-04-06T03:32:00.391Z,100.00
2019-04-06T03:34:00.085Z,100.00
2019-04-06T03:36:00.282Z,100.00
2019-04-06T03:38:00.497Z,100.00
2019-04-06T03:40:00.182Z,100.00
2019-04-06T03:42:00.096Z,100.00
2019-04-06T03:44:00.293Z,100.00
2019-04-06T03:46:00.430Z,100.00
2019-04-06T03:48:00.311Z,100.00
2019-04-06T03:50:00.355Z,100.00
2019-04-06T03:52:00.361Z,100.00
2019-04-06T03:54:00.047Z,100.00
2019-04-06T03:56:00.480Z,100.00
2019-04-06T03:58:00.391Z,100.00
2019-04-06T04:00:00.505Z,100.00
2019-04-06T04:02:00.730Z,100.00
2019-04-06T04:04:00.324Z,100.00
2019-04-06T04:06:00.256Z,100.00
2019-04-06T04:08:00.115Z,100.00
2019-04-06T04:10:00.409Z,100.00
2019-04-06T04:12:00.196Z,100.00
2019-04-06T04:14:00.290Z,100.00
2019-04-06T04:16:00.091Z,100.00
2019-04-06T04:18:00.225Z,100.00
2019-04-06T04:20:00.215Z,100.00
2019-04-06T04:22:00.242Z,100.00
2019-04-06T04:24:00.339Z,100.00
2019-04-06T04:26:00.366Z,100.00
2019-04-06T04:28:00.444Z,100.00
2019-04-06T04:30:00.208Z,100.00
2019-04-06T04:32:00.291Z,100.00
2019-04-06T04:34:00.308Z,100.00
2019-04-06T04:36:00.510Z,100.00
2019-04-06T04:38:00.244Z,100.00
2019-04-06T04:40:00.101Z,100.00
2019-04-06T04:42:00.351Z,100.00
2019-04-06T04:44:00.606Z,100.00
2019-04-06T04:46:00.808Z,100.00
2019-04-06T04:48:00.196Z,100.00
2019-04-06T04:50:00.593Z,100.00
2019-04-06T04:52:00.292Z,100.00
2019-04-06T04:54:00.313Z,100.00
2019-04-06T04:56:00.390Z,100.00
2019-04-06T04:58:00.442Z,100.00
2019-04-06T05:00:00.327Z,100.00
2019-04-06T05:02:00.305Z,100.00
2019-04-06T05:04:00.361Z,100.00
2019-04-06T05:06:00.486Z,100.00
2019-04-06T05:08:00.593Z,100.00
2019-04-06T05:10:00.322Z,100.00
2019-04-06T05:12:00.082Z,100.00
2019-04-06T05:14:00.193Z,100.00
2019-04-06T05:16:00.244Z,100.00
2019-04-06T05:18:00.180Z,100.00
2019-04-06T05:20:00.461Z,100.00
2019-04-06T05:22:00.158Z,100.00
2019-04-06T05:24:00.480Z,100.00
2019-04-06T05:26:00.275Z,100.00
2019-04-06T05:28:00.194Z,100.00
2019-04-06T05:30:00.423Z,100.00
2019-04-06T05:32:00.440Z,100.00
2019-04-06T05:34:00.235Z,100.00
2019-04-06T05:36:00.466Z,100.00
2019-04-06T05:38:00.238Z,100.00
2019-04-06T05:40:00.472Z,100.00
2019-04-06T05:42:00.183Z,100.00
2019-04-06T05:44:00.827Z,100.00
2019-04-06T05:46:00.304Z,100.00
2019-04-06T05:48:00.309Z,100.00
2019-04-06T05:50:00.643Z,100.00
2019-04-06T05:52:00.257Z,100.00
2019-04-06T05:54:00.456Z,100.00
2019-04-06T05:56:00.466Z,100.00
2019-04-06T05:58:04.193Z,100.00
2019-04-06T06:00:00.486Z,100.00
2019-04-06T06:02:00.560Z,100.00
2019-04-06T06:04:00.521Z,100.00
2019-04-06T06:06:00.633Z,100.00
2019-04-06T06:08:00.262Z,100.00
2019-04-06T06:10:00.448Z,100.00
2019-04-06T06:12:00.661Z,100.00
2019-04-06T06:14:00.466Z,100.00
2019-04-06T06:16:00.603Z,100.00
2019-04-06T06:18:00.484Z,100.00
2019-04-06T06:20:00.468Z,100.00
2019-04-06T06:22:00.407Z,100.00
2019-04-06T06:24:00.355Z,100.00
2019-04-06T06:26:00.429Z,100.00
2019-04-06T06:28:00.433Z,100.00
2019-04-06T06:30:00.664Z,100.00
2019-04-06T06:32:00.418Z,100.00
2019-04-06T06:34:00.585Z,100.00
2019-04-06T06:36:00.387Z,100.00
2019-04-06T06:38:00.608Z,100.00
2019-04-06T06:40:00.418Z,100.00
2019-04-06T06:42:02.968Z,100.00
2019-04-06T06:44:00.294Z,100.00
2019-04-06T06:46:00.206Z,100.00
2019-04-06T06:48:00.465Z,100.00
2019-04-06T06:50:00.442Z,100.00
2019-04-06T06:52:00.389Z,100.00
2019-04-06T06:54:00.195Z,100.00
2019-04-06T06:56:00.085Z,100.00
2019-04-06T06:58:00.404Z,100.00
2019-04-06T07:00:00.230Z,100.00
2019-04-06T07:02:00.628Z,100.00
2019-04-06T07:04:03.341Z,100.00
2019-04-06T07:06:00.254Z,100.00
2019-04-06T07:08:00.165Z,100.00
2019-04-06T07:10:05.816Z,100.00
2019-04-06T07:12:00.500Z,100.00
2019-04-06T07:14:00.377Z,100.00
2019-04-06T07:16:00.415Z,100.00
2019-04-06T07:18:03.063Z,99.91
2019-04-06T07:20:00.450Z,99.83
2019-04-06T07:22:00.457Z,99.81
2019-04-06T07:24:00.628Z,99.79
2019-04-06T07:26:00.419Z,99.61
2019-04-06T07:28:00.328Z,99.34
2019-04-06T07:30:00.279Z,99.16
2019-04-06T07:32:00.359Z,98.77
2019-04-06T07:34:00.419Z,98.67
2019-04-06T07:36:00.436Z,98.39
2019-04-06T07:38:00.322Z,97.94
2019-04-06T07:40:00.354Z,97.27
2019-04-06T07:42:00.777Z,96.32
2019-04-06T07:44:00.377Z,95.51
2019-04-06T07:46:00.389Z,95.11
2019-04-06T07:48:00.401Z,93.24
2019-04-06T07:50:00.388Z,92.51
2019-04-06T07:52:00.419Z,89.75
2019-04-06T07:54:03.301Z,88.66
2019-04-06T07:56:00.507Z,86.63
2019-04-06T07:58:00.497Z,85.98
2019-04-06T08:00:00.480Z,85.36
2019-04-06T08:02:00.217Z,83.18
2019-04-06T08:04:00.390Z,81.67
2019-04-06T08:06:00.303Z,81.42
2019-04-06T08:08:00.367Z,81.43
2019-04-06T08:10:00.438Z,81.34
2019-04-06T08:12:03.287Z,80.92
2019-04-06T08:14:00.408Z,78.43
2019-04-06T08:16:00.392Z,73.97
2019-04-06T08:18:00.471Z,71.51
2019-04-06T08:20:00.690Z,72.40
2019-04-06T08:22:00.429Z,73.35
2019-04-06T08:24:03.358Z,70.77
2019-04-06T08:26:00.417Z,70.86
2019-04-06T08:28:00.665Z,69.08
2019-04-06T08:30:00.539Z,68.50
2019-04-06T08:32:00.758Z,69.02
2019-04-06T08:34:00.464Z,66.15
2019-04-06T08:36:00.591Z,67.13
2019-04-06T08:38:00.898Z,66.94
2019-04-06T08:40:00.749Z,68.23
2019-04-06T08:42:00.563Z,68.86
2019-04-06T08:44:00.801Z,65.68
2019-04-06T08:46:00.634Z,65.26
2019-04-06T08:48:00.555Z,65.25
2019-04-06T08:50:00.526Z,65.40
2019-04-06T08:52:00.622Z,66.17
2019-04-06T08:54:00.455Z,64.94
2019-04-06T08:56:00.595Z,64.96
2019-04-06T08:58:00.506Z,66.09
2019-04-06T09:00:00.511Z,66.51
2019-04-06T09:02:00.545Z,66.95
2019-04-06T09:04:00.537Z,67.84
2019-04-06T09:06:00.982Z,67.69
2019-04-06T09:08:00.777Z,63.55
2019-04-06T09:10:00.644Z,63.17
2019-04-06T09:12:00.496Z,65.03
2019-04-06T09:14:00.591Z,65.00
2019-04-06T09:16:00.608Z,64.89
2019-04-06T09:18:00.435Z,65.05
2019-04-06T09:20:00.630Z,62.80
2019-04-06T09:22:03.698Z,64.69
2019-04-06T09:24:00.668Z,64.17
2019-04-06T09:26:03.345Z,64.00
2019-04-06T09:28:00.678Z,63.52
2019-04-06T09:30:00.490Z,63.09
2019-04-06T09:32:00.911Z,63.64
2019-04-06T09:34:00.450Z,62.46
2019-04-06T09:36:02.454Z,64.25
2019-04-06T09:38:00.867Z,64.94
2019-04-06T09:40:00.569Z,65.15
2019-04-06T09:42:00.653Z,65.71
2019-04-06T09:44:00.320Z,66.60
2019-04-06T09:46:00.690Z,65.78
2019-04-06T09:48:01.069Z,66.25
2019-04-06T09:50:00.470Z,65.64
2019-04-06T09:52:00.716Z,66.40
2019-04-06T09:54:06.218Z,65.86
2019-04-06T09:56:00.790Z,66.84
2019-04-06T09:58:00.664Z,67.60
2019-04-06T10:00:00.807Z,66.45
2019-04-06T10:02:00.620Z,66.04
2019-04-06T10:04:00.686Z,66.86
2019-04-06T10:06:00.597Z,67.07
2019-04-06T10:08:00.912Z,67.55
2019-04-06T10:10:00.607Z,67.91
2019-04-06T10:12:03.438Z,68.28
2019-04-06T10:14:00.946Z,69.23
2019-04-06T10:16:00.632Z,69.30
2019-04-06T10:18:00.708Z,69.67
2019-04-06T10:20:00.921Z,68.82
2019-04-06T10:22:00.782Z,69.33
2019-04-06T10:24:00.804Z,69.60
2019-04-06T10:26:00.973Z,69.01
2019-04-06T10:28:00.934Z,69.18
2019-04-06T10:30:00.745Z,67.67
2019-04-06T10:32:00.628Z,66.05
2019-04-06T10:34:01.089Z,66.76
2019-04-06T10:36:00.615Z,67.68
2019-04-06T10:38:01.020Z,67.50
2019-04-06T10:40:00.728Z,65.98
2019-04-06T10:42:00.905Z,66.75
2019-04-06T10:44:00.688Z,67.23
2019-04-06T10:46:01.312Z,67.17
2019-04-06T10:48:00.839Z,66.92
2019-04-06T10:50:01.059Z,66.94
2019-04-06T10:52:00.778Z,67.53
2019-04-06T10:54:00.772Z,67.99
2019-04-06T10:56:01.089Z,67.61
2019-04-06T10:58:00.895Z,67.48
2019-04-06T11:00:03.068Z,66.61
2019-04-06T11:02:00.716Z,65.65
2019-04-06T11:04:00.722Z,65.18
2019-04-06T11:06:01.420Z,65.99
2019-04-06T11:08:01.070Z,66.29
2019-04-06T11:10:00.662Z,66.04
2019-04-06T11:12:00.782Z,65.87
2019-04-06T11:14:00.681Z,65.48
2019-04-06T11:16:01.213Z,66.64
2019-04-06T11:18:00.908Z,63.84
2019-04-06T11:20:01.148Z,64.88
2019-04-06T11:22:00.738Z,65.53
2019-04-06T11:24:00.752Z,65.41
2019-04-06T11:26:00.768Z,65.66
2019-04-06T11:28:03.349Z,65.12
2019-04-06T11:30:11.957Z,64.27
2019-04-06T11:32:01.196Z,64.33
2019-04-06T11:34:00.838Z,63.06
2019-04-06T11:36:00.822Z,63.60
2019-04-06T11:38:01.051Z,62.77
2019-04-06T11:40:00.948Z,62.30
2019-04-06T11:42:00.879Z,61.62
2019-04-06T11:44:01.080Z,61.33
2019-04-06T11:46:00.785Z,61.27
2019-04-06T11:48:00.987Z,61.73
2019-04-06T11:50:00.733Z,60.18
2019-04-06T11:52:00.747Z,59.22
2019-04-06T11:54:01.285Z,61.39
2019-04-06T11:56:00.837Z,61.14
2019-04-06T11:58:00.856Z,60.72
2019-04-06T12:00:00.866Z,60.68
2019-04-06T12:02:01.051Z,61.04
2019-04-06T12:04:01.215Z,60.91
2019-04-06T12:06:01.123Z,61.30
2019-04-06T12:08:00.556Z,62.80
2019-04-06T12:10:00.831Z,62.43
2019-04-06T12:12:00.933Z,62.54
2019-04-06T12:14:00.952Z,62.06
2019-04-06T12:16:01.252Z,63.15
2019-04-06T12:18:00.883Z,62.95
2019-04-06T12:20:00.827Z,62.50
2019-04-06T12:22:00.828Z,62.56
2019-04-06T12:24:01.314Z,63.00
2019-04-06T12:26:01.607Z,62.93
2019-04-06T12:28:01.035Z,63.47
2019-04-06T12:30:00.934Z,62.95
2019-04-06T12:32:01.059Z,63.40
2019-04-06T12:34:00.816Z,62.38
2019-04-06T12:36:00.972Z,64.12
2019-04-06T12:38:01.194Z,64.01
2019-04-06T12:40:00.893Z,63.71
2019-04-06T12:42:00.889Z,62.91
2019-04-06T12:44:01.256Z,63.29
2019-04-06T12:46:00.926Z,63.12
2019-04-06T12:48:01.035Z,62.58
2019-04-06T12:50:00.850Z,61.70
2019-04-06T12:52:00.963Z,61.70
2019-04-06T12:54:01.135Z,61.74
2019-04-06T12:56:01.168Z,60.83
2019-04-06T12:58:00.992Z,62.06
2019-04-06T13:00:01.020Z,62.25
2019-04-06T13:02:00.921Z,62.41
2019-04-06T13:04:00.649Z,61.84
2019-04-06T13:06:00.947Z,61.52
2019-04-06T13:08:01.160Z,62.58
2019-04-06T13:10:00.986Z,63.41
2019-04-06T13:12:00.772Z,61.54
2019-04-06T13:14:00.863Z,61.13
2019-04-06T13:16:00.899Z,60.36
2019-04-06T13:18:00.903Z,59.99
2019-04-06T13:20:01.218Z,59.94
2019-04-06T13:22:01.030Z,59.72
2019-04-06T13:24:00.910Z,59.60
2019-04-06T13:26:01.058Z,60.78
2019-04-06T13:28:01.082Z,60.72
2019-04-06T13:30:00.980Z,60.26
2019-04-06T13:32:00.914Z,61.26
2019-04-06T13:34:00.931Z,59.89
2019-04-06T13:36:01.283Z,59.92
2019-04-06T13:38:01.136Z,59.95
2019-04-06T13:40:00.941Z,58.72
2019-04-06T13:42:00.949Z,58.97
2019-04-06T13:44:01.241Z,59.04
2019-04-06T13:46:00.973Z,57.82
2019-04-06T13:48:01.391Z,57.50
2019-04-06T13:50:00.981Z,57.53
2019-04-06T13:52:01.014Z,56.13
2019-04-06T13:54:01.126Z,55.64
2019-04-06T13:56:01.028Z,56.83
2019-04-06T13:58:01.000Z,57.42
2019-04-06T14:00:00.976Z,56.60
2019-04-06T14:02:01.265Z,57.43
2019-04-06T14:04:00.976Z,57.29
2019-04-06T14:06:01.002Z,58.18
2019-04-06T14:08:01.026Z,57.76
2019-04-06T14:10:01.046Z,58.29
2019-04-06T14:12:00.770Z,58.47
2019-04-06T14:14:01.096Z,58.16
2019-04-06T14:16:01.153Z,57.89
2019-04-06T14:18:01.384Z,58.44
2019-04-06T14:20:01.136Z,57.96
2019-04-06T14:22:01.425Z,56.86
2019-04-06T14:24:01.203Z,56.91
2019-04-06T14:26:01.068Z,56.92
2019-04-06T14:28:01.015Z,57.01
2019-04-06T14:30:00.774Z,56.24
2019-04-06T14:32:01.037Z,56.83
2019-04-06T14:34:01.059Z,57.58
2019-04-06T14:36:00.935Z,57.30
2019-04-06T14:38:01.395Z,56.43
2019-04-06T14:40:01.182Z,56.05
2019-04-06T14:42:01.106Z,56.05
2019-04-06T14:44:01.126Z,56.47
2019-04-06T14:46:01.122Z,56.37
2019-04-06T14:48:01.133Z,55.73
2019-04-06T14:50:01.144Z,56.31
2019-04-06T14:52:01.156Z,56.76
2019-04-06T14:54:01.500Z,56.84
2019-04-06T14:56:00.947Z,57.96
2019-04-06T14:58:01.237Z,56.35
2019-04-06T15:00:01.131Z,56.90
2019-04-06T15:02:01.221Z,56.07
2019-04-06T15:04:01.240Z,57.19
2019-04-06T15:06:01.505Z,57.07
2019-04-06T15:08:01.149Z,58.71
2019-04-06T15:10:01.358Z,58.10
2019-04-06T15:12:01.287Z,57.24
2019-04-06T15:14:01.304Z,57.01
2019-04-06T15:16:01.046Z,56.25
2019-04-06T15:18:01.405Z,56.48
2019-04-06T15:20:00.886Z,57.14
2019-04-06T15:22:01.126Z,56.92
2019-04-06T15:24:01.329Z,56.48
2019-04-06T15:26:01.221Z,56.71
2019-04-06T15:28:01.178Z,57.00
2019-04-06T15:30:01.134Z,57.54
2019-04-06T15:32:01.094Z,56.51
2019-04-06T15:34:00.986Z,56.13
2019-04-06T15:36:01.118Z,55.49
2019-04-06T15:38:01.328Z,54.37
2019-04-06T15:40:01.127Z,54.29
2019-04-06T15:42:01.424Z,53.52
2019-04-06T15:44:01.257Z,53.04
2019-04-06T15:46:01.168Z,53.04
2019-04-06T15:48:01.551Z,52.28
2019-04-06T15:50:01.291Z,52.06
2019-04-06T15:52:10.276Z,52.10
2019-04-06T15:54:01.467Z,50.96
2019-04-06T15:56:01.423Z,51.76
2019-04-06T15:58:01.067Z,51.63
2019-04-06T16:00:01.248Z,51.63
2019-04-06T16:02:02.952Z,51.13
2019-04-06T16:04:01.233Z,51.83
2019-04-06T16:06:01.188Z,52.07
2019-04-06T16:08:01.525Z,50.96
2019-04-06T16:10:01.415Z,51.12
2019-04-06T16:12:01.249Z,50.85
2019-04-06T16:14:01.477Z,50.27
2019-04-06T16:16:01.176Z,51.11
2019-04-06T16:18:01.191Z,50.24
2019-04-06T16:20:01.917Z,50.32
2019-04-06T16:22:01.092Z,50.21
2019-04-06T16:24:02.989Z,49.92
2019-04-06T16:26:01.565Z,50.30
2019-04-06T16:28:01.211Z,49.85
2019-04-06T16:30:01.116Z,49.96
2019-04-06T16:32:10.836Z,49.93
2019-04-06T16:34:01.547Z,50.39
2019-04-06T16:36:01.258Z,50.06
2019-04-06T16:38:01.214Z,50.09
2019-04-06T16:40:01.372Z,50.49
2019-04-06T16:42:01.065Z,50.39
2019-04-06T16:44:01.570Z,50.56
2019-04-06T16:46:01.565Z,50.83
2019-04-06T16:48:01.219Z,50.28
2019-04-06T16:50:01.000Z,49.91
2019-04-06T16:52:01.247Z,50.25
2019-04-06T16:54:01.806Z,50.26
2019-04-06T16:56:01.482Z,50.88
2019-04-06T16:58:01.290Z,51.07
2019-04-06T17:00:01.344Z,51.15
2019-04-06T17:02:01.299Z,52.03
2019-04-06T17:04:01.173Z,52.60
2019-04-06T17:06:01.488Z,52.80
2019-04-06T17:08:10.705Z,53.62
2019-04-06T17:10:01.100Z,53.89
2019-04-06T17:12:01.040Z,53.80
2019-04-06T17:14:01.900Z,54.63
2019-04-06T17:16:01.158Z,55.06
2019-04-06T17:18:01.396Z,54.99
2019-04-06T17:20:02.095Z,55.44
2019-04-06T17:22:01.259Z,55.83
2019-04-06T17:24:01.333Z,56.51
2019-04-06T17:26:01.745Z,56.51
2019-04-06T17:28:01.619Z,56.67
2019-04-06T17:30:01.370Z,57.46
2019-04-06T17:32:01.389Z,56.68
2019-04-06T17:34:01.320Z,57.58
2019-04-06T17:36:01.594Z,57.25
2019-04-06T17:38:01.418Z,57.73
2019-04-06T17:40:01.971Z,58.50
2019-04-06T17:42:01.566Z,58.48
2019-04-06T17:44:01.350Z,58.53
2019-04-06T17:46:01.355Z,59.28
2019-04-06T17:48:01.320Z,59.31
2019-04-06T17:50:01.943Z,59.78
2019-04-06T17:52:01.392Z,60.40
2019-04-06T17:54:01.644Z,60.63
2019-04-06T17:56:01.184Z,60.88
2019-04-06T17:58:01.500Z,61.26
2019-04-06T18:00:01.232Z,61.21
2019-04-06T18:02:01.454Z,61.95
2019-04-06T18:04:01.394Z,62.72
2019-04-06T18:06:01.835Z,62.53
2019-04-06T18:08:01.292Z,63.37
2019-04-06T18:10:01.317Z,63.63
2019-04-06T18:12:01.819Z,63.87
2019-04-06T18:14:01.268Z,64.28
2019-04-06T18:16:01.438Z,64.92
2019-04-06T18:18:01.452Z,65.32
2019-04-06T18:20:02.272Z,65.30
2019-04-06T18:22:02.933Z,65.76
2019-04-06T18:24:01.480Z,66.23
2019-04-06T18:26:01.491Z,66.40
2019-04-06T18:28:01.566Z,66.29
2019-04-06T18:30:01.448Z,66.45
2019-04-06T18:32:01.428Z,67.06
2019-04-06T18:34:01.529Z,67.35
2019-04-06T18:36:01.342Z,67.14
2019-04-06T18:38:01.472Z,67.72
2019-04-06T18:40:01.617Z,68.04
2019-04-06T18:42:01.906Z,68.40
2019-04-06T18:44:01.532Z,68.68
2019-04-06T18:46:01.407Z,68.91
2019-04-06T18:48:01.415Z,69.39
2019-04-06T18:50:01.760Z,69.34
2019-04-06T18:52:01.783Z,69.69
2019-04-06T18:54:01.401Z,69.85
2019-04-06T18:56:01.346Z,70.50
2019-04-06T18:58:10.057Z,70.45
2019-04-06T19:00:01.825Z,70.47
2019-04-06T19:02:01.605Z,70.90
2019-04-06T19:04:01.308Z,70.56
2019-04-06T19:06:01.527Z,71.04
2019-04-06T19:08:01.336Z,70.86
2019-04-06T19:10:01.600Z,70.87
2019-04-06T19:12:01.355Z,71.10
2019-04-06T19:14:01.573Z,71.39
2019-04-06T19:16:01.585Z,71.20
2019-04-06T19:18:01.309Z,71.36
2019-04-06T19:20:01.482Z,71.27
2019-04-06T19:22:01.433Z,71.25
2019-04-06T19:24:01.535Z,71.00
2019-04-06T19:26:01.955Z,71.22
2019-04-06T19:28:01.640Z,71.26
2019-04-06T19:30:01.359Z,71.42
2019-04-06T19:32:01.371Z,71.06
2019-04-06T19:34:01.378Z,70.68
2019-04-06T19:36:01.401Z,70.28
2019-04-06T19:38:02.006Z,70.55
2019-04-06T19:40:01.463Z,70.51
2019-04-06T19:42:01.828Z,70.33
2019-04-06T19:44:01.749Z,70.22
2019-04-06T19:46:02.224Z,70.68
2019-04-06T19:48:02.048Z,69.97
2019-04-06T19:50:01.754Z,69.96
2019-04-06T19:52:01.574Z,69.48
2019-04-06T19:54:04.356Z,69.69
2019-04-06T19:56:01.202Z,69.93
2019-04-06T19:58:01.456Z,69.52
2019-04-06T20:00:01.320Z,69.50
2019-04-06T20:02:01.747Z,69.59
2019-04-06T20:04:01.363Z,69.36
2019-04-06T20:06:01.781Z,69.26
2019-04-06T20:08:01.789Z,69.62
2019-04-06T20:10:01.506Z,69.06
2019-04-06T20:12:06.056Z,69.42
2019-04-06T20:14:01.830Z,69.63
2019-04-06T20:16:02.039Z,69.14
2019-04-06T20:18:01.584Z,69.65
2019-04-06T20:20:01.968Z,69.19
2019-04-06T20:22:01.353Z,69.53
2019-04-06T20:24:01.545Z,69.71
2019-04-06T20:26:01.487Z,69.33
2019-04-06T20:28:01.321Z,69.95
2019-04-06T20:30:01.949Z,69.84
2019-04-06T20:32:01.299Z,70.08
2019-04-06T20:34:01.897Z,69.87
2019-04-06T20:36:01.539Z,70.30
2019-04-06T20:38:01.350Z,70.23
2019-04-06T20:40:01.858Z,70.52
2019-04-06T20:42:01.880Z,70.90
2019-04-06T20:44:01.589Z,70.22
2019-04-06T20:46:01.785Z,71.47
2019-04-06T20:48:01.614Z,71.14
2019-04-06T20:50:01.777Z,71.42
2019-04-06T20:52:01.895Z,71.41
2019-04-06T20:54:01.660Z,71.65
2019-04-06T20:56:01.900Z,71.75
2019-04-06T20:58:01.845Z,71.98
2019-04-06T21:00:01.959Z,71.68
2019-04-06T21:02:01.489Z,71.74
2019-04-06T21:04:02.897Z,71.78
2019-04-06T21:06:01.883Z,71.53
2019-04-06T21:08:02.168Z,71.27
2019-04-06T21:10:01.641Z,71.51
2019-04-06T21:12:01.648Z,71.72
2019-04-06T21:14:02.138Z,71.60
2019-04-06T21:16:02.193Z,71.81
2019-04-06T21:18:01.651Z,71.66
2019-04-06T21:20:01.680Z,71.27
2019-04-06T21:22:01.606Z,71.58
2019-04-06T21:24:02.034Z,71.47
2019-04-06T21:26:01.810Z,71.22
2019-04-06T21:28:02.065Z,70.91
2019-04-06T21:30:01.686Z,71.32
2019-04-06T21:32:01.662Z,71.32
2019-04-06T21:34:10.518Z,71.52
2019-04-06T21:36:01.723Z,71.43
2019-04-06T21:38:02.050Z,71.53
2019-04-06T21:40:02.351Z,71.32
2019-04-06T21:42:01.515Z,71.53
2019-04-06T21:44:02.273Z,71.43
2019-04-06T21:46:02.390Z,71.52
2019-04-06T21:48:01.911Z,71.55
2019-04-06T21:50:02.022Z,71.70
2019-04-06T21:52:02.245Z,71.84
2019-04-06T21:54:01.595Z,72.08
2019-04-06T21:56:05.750Z,72.40
2019-04-06T21:58:02.001Z,72.30
2019-04-06T22:00:02.185Z,72.83
2019-04-06T22:02:01.560Z,72.61
2019-04-06T22:04:02.169Z,73.06
2019-04-06T22:06:01.661Z,72.96
2019-04-06T22:08:02.615Z,73.26
2019-04-06T22:10:01.589Z,73.38
2019-04-06T22:12:01.721Z,73.33
2019-04-06T22:14:01.837Z,73.46
2019-04-06T22:16:01.875Z,73.71
2019-04-06T22:18:01.625Z,73.90
2019-04-06T22:20:01.916Z,74.39
2019-04-06T22:22:02.147Z,74.82
2019-04-06T22:24:01.673Z,75.47
2019-04-06T22:26:01.693Z,76.00
2019-04-06T22:28:01.887Z,76.21
2019-04-06T22:30:01.951Z,77.25
2019-04-06T22:32:02.280Z,77.71
2019-04-06T22:34:01.721Z,77.44
2019-04-06T22:36:02.158Z,77.72
2019-04-06T22:38:01.793Z,77.99
2019-04-06T22:40:02.253Z,78.33
2019-04-06T22:42:02.127Z,79.26
2019-04-06T22:44:01.984Z,79.18
2019-04-06T22:46:01.663Z,79.57
2019-04-06T22:48:01.595Z,79.69
2019-04-06T22:50:01.773Z,80.04
2019-04-06T22:52:02.255Z,80.03
2019-04-06T22:54:01.540Z,80.24
2019-04-06T22:56:01.783Z,80.40
2019-04-06T22:58:01.687Z,80.50
2019-04-06T23:00:01.948Z,80.25
2019-04-06T23:02:01.593Z,80.42
2019-04-06T23:04:01.898Z,80.64
2019-04-06T23:06:01.809Z,80.32
2019-04-06T23:08:01.818Z,80.29
2019-04-06T23:10:02.135Z,80.15
2019-04-06T23:12:01.834Z,80.08
2019-04-06T23:14:02.095Z,79.55
2019-04-06T23:16:02.098Z,79.44
2019-04-06T23:18:01.649Z,79.19
2019-04-06T23:20:02.671Z,78.83
2019-04-06T23:22:01.796Z,78.41
2019-04-06T23:24:03.802Z,78.30
2019-04-06T23:26:02.592Z,77.83
2019-04-06T23:28:01.715Z,77.72
2019-04-06T23:30:01.885Z,77.35
2019-04-06T23:32:02.026Z,77.47
2019-04-06T23:34:02.138Z,77.19
2019-04-06T23:36:02.161Z,77.10
2019-04-06T23:38:01.969Z,77.13
2019-04-06T23:40:01.803Z,76.89
2019-04-06T23:42:01.610Z,76.54
2019-04-06T23:44:01.741Z,76.65
2019-04-06T23:46:01.946Z,76.86
2019-04-06T23:48:01.765Z,76.92
2019-04-06T23:50:02.021Z,77.08
2019-04-06T23:52:01.619Z,76.92
2019-04-06T23:54:01.953Z,77.20
2019-04-06T23:56:02.065Z,77.29
2019-04-06T23:58:01.706Z,77.81
